Aviation Digital Data Service (ADDS)

Output produced by METARs form (1304 UTC 21 February 2018)
found at http://www.aviationweather.gov/adds/metars/
 
UTAA 211300Z 09008KT 9999 OVC025 10/05 Q1019 R88/CLRD70 NOSIG
UTAA 211300Z 09008KT 9999 OVC025 10/05 Q1019 R88/CLRD70 NOSIG
UTAK 211300Z 08006KT 9999 BKN040 11/01 Q1020 R16R/CLRD70 NOSIG
UTAM 211300Z 06008KT CAVOK 13/06 Q1021 NOSIG
UTAT 211300Z 03008KT CAVOK 04/00 Q1023 R26/CLRD70 NOSIG
UTDD 211230Z VRB01MPS 9999 FEW066 14/03 Q1020 R09/CLRD// NOSIG RMK QFE697/0929
UTDK 211230Z 24002MPS 9999 NSC 13/07 Q1020 R01/09//70 RMK QFE708/0944
UTDL 211230Z 24002MPS 9999 OVC086 09/03 Q1023 R26/CLRD70 NOSIG RMK QFE729/0972
UTDT 211230Z 32002MPS 270V010 9999 FEW030 15/05 Q1020 35////// RMK QFE725/0967
UTFN 211230Z 36002KT 9000 OVC030 08/01 Q1023 R28/CLRD70 NOSIG
UTNN 211230Z VRB02KT CAVOK 05/M04 Q1024 R33/CLRD60 NOSIG
UTNU 211230Z 01006KT CAVOK 05/00 Q1023 R31/CLRD70 NOSIG
UTSA 211230Z VRB02KT 9999 NSC 08/02 Q1023 R07/1///65 NOSIG
UTSB 211230Z 03004KT 9999 FEW033 09/01 Q1023 R01/CLRD70 NOSIG
UTSK 211230Z 28002KT 9999 BKN031CB 10/04 Q1022 R16/CLRD70
UTSS 211230Z 36004KT 9999 OVC026 06/02 Q1023 R09/70D NOSIG
UTST 211230Z VRB02KT 9999 BKN041 15/04 Q1020 R88/CLRD70 NOSIG
UTTT 211230Z 09004KT 5000 -SHRA BR OVC062CB 07/04 Q1023 R26R/29//50 NOSIG
UTAT 211300Z 03008KT CAVOK 04/00 Q1023 R26/CLRD70 NOSIG
UTAM 211300Z 06008KT CAVOK 13/06 Q1021 NOSIG
UTAK 211300Z 08006KT 9999 BKN040 11/01 Q1020 R16R/CLRD70 NOSIG